Hlavní strana
METAR-TAF:

METAR-TAF

Letiště :

Damašek, Sýrie

zeměpisná šířka: 33-25N, zeměpisná délka: 036-31E, výška: 608 m

Aktuální stav počasí

Zpráva byla vytvořena před 57 minutami, v 21:00 UTC
Jihovýchodní vítr 6 kt
Teplota 5°C
Vlhkost vzduchu 81%
Tlak 1011 hPa
Viditelnost 10 km a více
Žádná oblačnost pod 1500 m, nevyskytují se cumulonimby.

METAR: OSDI 222100Z 13006KT CAVOK 05/02 Q1011

Čas: 23:57 (21:57 UTC)

Předpověď počasí

Předpověď platná od 22 v 18 UTC do 23 v 24 UTC
Jihozápadní vítr 15 kt
Viditelnost: 8000 m
Polojasno ve výšce 3000 ft
Oblačno až skoro zataženo ve výšce 9000 ft
Dočasný
od 22 v 18 UTC do 23 v 24 UTC
Západojihozápadní vítr 15 kt s nárazy do 25 kt
Viditelnost: 6000 m
Skoro jasno ve výšce 2600 ft
Polojasno ve výšce 3000 ft
Oblačno až skoro zataženo ve výšce 9000 ft
dešťové přeháňky

TAF: OSDI 2218/2324 22015KT 8000 SCT030 BKN090 TEMPO 2218/23245 24015G25KT 6000 SHRA FEW026 CB SCT030 BKN090

Stav a předpovědi počasí z více než 4 000 letišť (zprávy METAR a TAF).

Červené a žluté tečky na mapě představují dostupné meteorologické stanice.

Když kurzor umístíte na tečku, zobrazí se název stanice.

Pak kliknutím zobrazíte stav a předpověď počasí.

Chcete-li změnit mapu, kliknutím na zelené tlačítko se znaménkem +mapu přiblížíte, kliknutím na zelené tlačítko se znaménkem – mapu oddálíte a kliknutím na zelené šipky přejdete na sousední mapy.


METAR-TAF: